Time;durP1;ratioP1;P1;durP2;ratioP2;P2;SDS_P1;SDS_P2;PMS_P1;PMS_P2;Temp;Humidity;BMP_temperature;BMP_pressure;BME280_temperature;BME280_humidity;BME280_pressure;Samples;Min_cycle;Max_cycle;Signal;HPM_P1;HPM_P2
2021/06/23 00:01:32;;;;;;;18.20;16.30;;;;;;;22.17;71.18;99779.33;126872;1090;102879;-80
2021/06/23 00:04:19;;;;;;;17.93;15.80;;;;;;;22.15;71.39;99776.80;126724;1090;114377;-80
2021/06/23 00:07:07;;;;;;;18.37;16.57;;;;;;;22.11;71.69;99772.75;126652;1089;102383;-80
2021/06/23 00:09:55;;;;;;;19.10;17.10;;;;;;;22.05;71.37;99783.88;126704;1090;114283;-81
2021/06/23 00:12:43;;;;;;;18.77;16.90;;;;;;;22.03;71.31;99796.42;126704;1090;103009;-80
2021/06/23 00:15:33;;;;;;;23.17;19.77;;;;;;;22.00;71.64;99786.08;126575;1090;113392;-80
2021/06/23 00:18:22;;;;;;;20.63;18.50;;;;;;;21.96;71.71;99787.32;126734;1090;103064;-80
2021/06/23 00:21:09;;;;;;;20.33;18.20;;;;;;;21.91;72.07;99786.89;126813;1089;113235;-80
2021/06/23 00:23:57;;;;;;;24.00;19.43;;;;;;;21.88;72.20;99787.13;126769;1090;102893;-80
2021/06/23 00:26:45;;;;;;;20.33;18.23;;;;;;;21.87;72.68;99791.59;126631;1089;113347;-80
2021/06/23 00:29:32;;;;;;;;;;;;;;;21.88;72.26;99792.44;126778;1090;102718;-80
2021/06/23 00:32:21;;;;;;;21.87;19.30;;;;;;;21.83;72.51;99795.49;126704;1090;103042;-80
2021/06/23 00:35:09;;;;;;;24.70;20.20;;;;;;;21.80;71.98;99803.73;126644;1089;102892;-80
2021/06/23 00:37:58;;;;;;;22.63;20.23;;;;;;;21.77;72.27;99795.19;126576;1088;114411;-80
2021/06/23 00:40:46;;;;;;;23.37;20.93;;;;;;;21.75;72.12;99802.45;126772;1090;103313;-80
2021/06/23 00:43:34;;;;;;;23.67;21.37;;;;;;;21.74;72.25;99798.95;126756;1090;103431;-80
2021/06/23 00:46:22;;;;;;;23.87;21.53;;;;;;;21.71;72.39;99800.03;126746;1090;114173;-80
2021/06/23 00:49:24;;;;;;;25.17;22.60;;;;;;;21.67;72.90;99806.58;126821;1088;102909;-80
2021/06/23 00:52:35;;;;;;;24.30;21.70;;;;;;;21.66;72.60;99819.98;126643;1089;113139;-80
2021/06/23 00:55:43;;;;;;;24.57;22.07;;;;;;;21.63;72.81;99821.09;126811;1090;102848;-80
2021/06/23 00:58:32;;;;;;;25.60;22.83;;;;;;;21.61;72.89;99828.34;126607;1089;114366;-80
2021/06/23 01:01:22;;;;;;;25.33;22.80;;;;;;;21.61;73.37;99828.34;126800;1090;102867;-80
2021/06/23 01:04:11;;;;;;;24.20;21.80;;;;;;;21.60;73.00;99821.35;126642;1090;114551;-80
2021/06/23 01:07:04;;;;;;;25.10;22.53;;;;;;;21.60;73.22;99826.66;126629;1090;102860;-80
2021/06/23 01:09:56;;;;;;;23.60;21.23;;;;;;;21.57;73.32;99821.61;126645;1090;113366;-80
2021/06/23 01:13:06;;;;;;;26.05;23.30;;;;;;;21.53;73.16;99817.52;126779;1090;102850;-80
2021/06/23 01:15:59;;;;;;;29.57;24.97;;;;;;;21.49;73.55;99818.75;126640;1088;114831;-80
2021/06/23 01:18:47;;;;;;;27.43;24.47;;;;;;;21.47;73.48;99825.16;126891;1089;103084;-80
2021/06/23 01:21:36;;;;;;;29.77;26.57;;;;;;;21.42;73.36;99830.86;126701;1089;114435;-81
2021/06/23 01:24:24;;;;;;;30.33;26.13;;;;;;;21.40;73.82;99830.99;126791;1090;102846;-80
2021/06/23 01:27:13;;;;;;;29.77;25.77;;;;;;;21.37;73.96;99841.02;126853;1090;113285;-80
2021/06/23 01:30:00;;;;;;;30.70;27.37;;;;;;;21.33;74.24;99840.41;126682;1090;102850;-80
2021/06/23 01:33:14;;;;;;;30.37;27.03;;;;;;;21.30;74.01;99847.79;126574;1090;114369;-80
2021/06/23 01:36:03;;;;;;;31.00;26.93;;;;;;;21.29;74.41;99854.06;126776;1090;102722;-80
2021/06/23 01:38:51;;;;;;;28.40;25.40;;;;;;;21.29;74.46;99865.52;126588;1088;114470;-80
2021/06/23 01:41:40;;;;;;;28.40;25.10;;;;;;;21.30;74.11;99867.20;126669;1090;102948;-80
2021/06/23 01:44:28;;;;;;;28.43;25.43;;;;;;;21.32;74.35;99869.72;126666;1089;114627;-80
2021/06/23 01:47:17;;;;;;;28.60;24.87;;;;;;;21.36;74.55;99871.14;126811;1090;101203;-80
2021/06/23 01:50:06;;;;;;;30.07;26.33;;;;;;;21.39;74.66;99873.57;126731;1089;103037;-82
2021/06/23 01:53:06;;;;;;;27.43;24.47;;;;;;;21.38;74.48;99870.08;126814;1089;102821;-80
2021/06/23 01:55:55;;;;;;;28.17;23.97;;;;;;;21.40;74.42;99876.09;126804;1090;102646;-80
2021/06/23 01:58:43;;;;;;;28.17;24.50;;;;;;;21.43;74.07;99872.34;126713;1090;114438;-80
2021/06/23 02:02:06;;;;;;;27.30;23.53;;;;;;;21.46;74.45;99872.08;126838;1090;102852;-80
2021/06/23 02:05:33;;;;;;;26.93;24.03;;;;;;;21.48;74.54;99878.09;126740;1090;113932;-82
2021/06/23 02:08:47;;;;;;;26.70;23.90;;;;;;;21.51;74.68;99869.88;126836;1090;102853;-80
2021/06/23 02:11:48;;;;;;;27.57;24.67;;;;;;;21.51;74.18;99869.88;126860;1090;114227;-80
2021/06/23 02:14:43;;;;;;;29.50;24.75;;;;;;;21.50;74.21;99870.00;126773;1090;102870;-79
2021/06/23 02:17:50;;;;;;;28.45;25.45;;;;;;;21.52;74.44;99862.75;126652;1088;113059;-80
2021/06/23 02:20:56;;;;;;;26.80;24.07;;;;;;;21.50;74.03;99860.23;126694;1090;103010;-80
2021/06/23 02:23:45;;;;;;;25.63;22.93;;;;;;;21.54;74.45;99866.95;126633;1089;114366;-80
2021/06/23 02:26:35;;;;;;;26.60;24.00;;;;;;;21.55;74.22;99866.02;126850;1088;102932;-80
2021/06/23 02:29:24;;;;;;;26.63;23.87;;;;;;;21.58;74.48;99878.19;126708;1089;114231;-80
2021/06/23 02:32:23;;;;;;;27.40;24.53;;;;;;;21.58;74.44;99881.67;126838;1090;102849;-80
2021/06/23 02:35:13;;;;;;;27.57;24.77;;;;;;;21.61;74.47;99891.19;126649;1089;113321;-80
2021/06/23 02:38:09;;;;;;;28.87;25.70;;;;;;;21.61;74.05;99892.03;126872;1090;102847;-80
2021/06/23 02:40:57;;;;;;;28.87;25.33;;;;;;;21.62;74.28;99895.53;126671;1090;114258;-80
2021/06/23 02:43:47;;;;;;;28.70;25.70;;;;;;;21.61;74.27;99907.95;126881;1090;103087;-80
2021/06/23 02:46:44;;;;;;;29.33;25.50;;;;;;;21.61;74.11;99907.11;126662;1090;114442;-80
2021/06/23 02:49:38;;;;;;;30.37;25.17;;;;;;;21.62;74.05;99906.14;126773;1090;103001;-80
2021/06/23 02:52:29;;;;;;;30.70;25.53;;;;;;;21.64;74.27;99913.00;126855;1087;114430;-80
2021/06/23 02:55:27;;;;;;;30.90;26.63;;;;;;;21.66;74.10;99916.36;126914;1089;102891;-80
2021/06/23 02:58:17;;;;;;;33.07;27.30;;;;;;;21.63;73.97;99919.28;126811;1089;114534;-80
2021/06/23 03:01:05;;;;;;;35.60;29.77;;;;;;;21.63;74.35;99927.24;126834;1088;102933;-80
2021/06/23 03:03:59;;;;;;;28.87;25.73;;;;;;;21.67;74.66;99928.66;126660;1088;113556;-80
2021/06/23 03:07:11;;;;;;;29.90;26.10;;;;;;;21.71;74.66;99923.94;126718;1090;102687;-80
2021/06/23 03:10:09;;;;;;;27.30;24.53;;;;;;;21.75;74.38;99921.89;126576;1089;114577;-79
2021/06/23 03:13:16;;;;;;;26.70;23.90;;;;;;;21.75;73.95;99921.89;126707;1090;102853;-79
2021/06/23 03:16:35;;;;;;;27.40;23.90;;;;;;;21.73;74.10;99931.80;126748;1089;114303;-79
2021/06/23 03:19:23;;;;;;;26.23;23.43;;;;;;;21.74;74.31;99923.70;126623;1088;102696;-79
2021/06/23 03:22:12;;;;;;;28.23;25.30;;;;;;;21.77;74.75;99938.53;126734;1090;113201;-79
2021/06/23 03:25:00;;;;;;;29.03;26.00;;;;;;;21.82;74.38;99941.63;126673;1090;102875;-79
2021/06/23 03:27:53;;;;;;;32.17;28.10;;;;;;;21.85;74.60;99947.52;126720;1090;113558;-79
2021/06/23 03:30:42;;;;;;;33.83;27.97;;;;;;;21.90;74.38;99955.09;126791;1090;102847;-81
2021/06/23 03:33:30;;;;;;;30.43;27.10;;;;;;;21.92;73.93;99953.18;126681;1090;114572;-79
2021/06/23 03:36:41;;;;;;;31.57;27.40;;;;;;;21.96;73.95;99952.78;126743;1090;102872;-79
2021/06/23 03:39:30;;;;;;;29.53;26.23;;;;;;;22.00;73.94;99956.02;126544;1090;113565;-82
2021/06/23 03:42:22;;;;;;;28.53;25.40;;;;;;;22.05;74.20;99968.94;126806;1090;100887;-79
2021/06/23 03:45:13;;;;;;;32.00;26.23;;;;;;;22.08;73.79;99969.52;126774;1090;103046;-81
2021/06/23 03:48:00;;;;;;;26.75;24.05;;;;;;;22.15;73.16;99976.02;126511;1090;114255;-81
2021/06/23 03:50:49;;;;;;;26.10;23.30;;;;;;;22.21;73.30;99980.80;126694;1089;102946;-81
2021/06/23 03:53:37;;;;;;;26.50;23.67;;;;;;;22.26;73.27;99983.92;126602;1089;114409;-81
2021/06/23 03:56:28;;;;;;;24.63;22.13;;;;;;;22.26;73.08;99983.05;126726;1089;102874;-81
2021/06/23 03:59:17;;;;;;;25.93;23.33;;;;;;;22.26;72.78;99978.61;126602;1090;114330;-81
2021/06/23 04:02:06;;;;;;;25.53;22.80;;;;;;;22.33;72.71;99978.92;126651;1089;102971;-81
2021/06/23 04:04:55;;;;;;;25.77;23.13;;;;;;;22.44;72.58;99981.52;126635;1089;114574;-81
2021/06/23 04:07:48;;;;;;;25.47;22.77;;;;;;;22.52;72.62;99988.81;126863;1089;102970;-81
2021/06/23 04:10:37;;;;;;;25.70;22.90;;;;;;;22.65;72.47;99989.45;126627;1090;114616;-81
2021/06/23 04:13:25;;;;;;;25.07;22.43;;;;;;;22.74;71.73;99987.80;126709;1089;102933;-80
2021/06/23 04:16:13;;;;;;;24.07;21.50;;;;;;;22.82;72.04;99994.18;126577;1089;114574;-80
2021/06/23 04:19:02;;;;;;;23.67;21.37;;;;;;;22.91;71.37;99992.52;126706;1090;102858;-81
2021/06/23 04:21:51;;;;;;;23.77;21.33;;;;;;;23.02;71.27;99997.75;126646;1090;113588;-80
2021/06/23 04:24:39;;;;;;;25.03;22.43;;;;;;;23.13;70.81;99999.45;126730;1089;102868;-80
2021/06/23 04:27:28;;;;;;;23.60;21.23;;;;;;;23.23;70.66;100010.13;126895;1089;102948;-80
2021/06/23 04:30:16;;;;;;;23.23;20.90;;;;;;;23.31;70.09;100008.46;126635;1090;113407;-80
2021/06/23 04:33:04;;;;;;;23.17;20.80;;;;;;;23.36;69.99;99998.27;126686;1090;102801;-80
2021/06/23 04:35:58;;;;;;;24.90;22.30;;;;;;;23.45;69.48;100004.58;126751;1088;114484;-80
2021/06/23 04:38:46;;;;;;;25.40;22.70;;;;;;;23.52;69.68;100005.73;126738;1090;102941;-80
2021/06/23 04:41:34;;;;;;;27.13;24.33;;;;;;;23.53;69.54;99999.42;126757;1089;113635;-80
2021/06/23 04:44:22;;;;;;;24.50;21.97;;;;;;;23.54;69.10;99998.44;126875;1088;103114;-80
2021/06/23 04:47:11;;;;;;;26.93;24.13;;;;;;;23.59;69.23;99990.91;126677;1088;114626;-80
2021/06/23 04:50:00;;;;;;;28.37;25.47;;;;;;;23.65;68.71;99994.83;126725;1089;102847;-80
2021/06/23 04:53:11;;;;;;;27.20;24.50;;;;;;;23.76;68.85;99998.20;126697;1088;114447;-80
2021/06/23 04:56:01;;;;;;;24.87;22.57;;;;;;;23.83;68.40;99998.48;126709;1089;102937;-80
2021/06/23 04:58:58;;;;;;;26.37;23.67;;;;;;;23.93;68.42;100009.98;126550;1088;114458;-80
2021/06/23 05:01:47;;;;;;;25.17;22.70;;;;;;;24.05;67.80;99992.85;126868;1089;103307;-80
2021/06/23 05:04:36;;;;;;;22.93;20.63;;;;;;;24.11;67.63;99997.64;126563;1090;114685;-80
2021/06/23 05:07:24;;;;;;;24.97;22.53;;;;;;;24.18;67.38;100002.39;126826;1089;103675;-80
2021/06/23 05:10:13;;;;;;;25.53;22.90;;;;;;;24.27;67.60;100001.55;126632;1090;114637;-80
2021/06/23 05:13:01;;;;;;;22.80;20.40;;;;;;;24.41;67.48;99998.44;126797;1088;102998;-80
2021/06/23 05:15:51;;;;;;;23.10;20.80;;;;;;;24.61;67.00;100009.92;126726;1089;102893;-80
2021/06/23 05:18:39;;;;;;;23.27;20.93;;;;;;;24.76;66.34;100015.61;126796;1089;102878;-80
2021/06/23 05:21:27;;;;;;;23.73;21.47;;;;;;;24.91;66.20;100022.16;126744;1090;102249;-80
2021/06/23 05:24:19;;;;;;;22.80;20.63;;;;;;;25.12;65.77;100025.45;126732;1089;114446;-80
2021/06/23 05:27:09;;;;;;;21.43;19.37;;;;;;;25.39;64.95;100031.80;126707;1090;103130;-80
2021/06/23 05:29:56;;;;;;;20.63;18.63;;;;;;;25.60;64.35;100035.03;126672;1090;114724;-80
2021/06/23 05:32:44;;;;;;;19.77;17.87;;;;;;;25.83;63.87;100032.78;126730;1090;102997;-80
2021/06/23 05:35:32;;;;;;;20.83;18.83;;;;;;;26.09;63.73;100028.36;126689;1087;114448;-80
2021/06/23 05:38:20;;;;;;;20.97;18.97;;;;;;;26.32;62.63;100028.70;126826;1089;102930;-80
2021/06/23 05:41:08;;;;;;;19.90;18.00;;;;;;;26.59;62.81;100041.14;126621;1089;114689;-80
2021/06/23 05:43:56;;;;;;;19.63;17.83;;;;;;;26.85;61.93;100037.61;126674;1090;102880;-80
2021/06/23 05:46:43;;;;;;;19.78;17.80;;;;;;;27.09;61.23;100035.91;126601;1089;114620;-80
2021/06/23 05:49:31;;;;;;;18.90;17.00;;;;;;;27.36;60.53;100028.67;126694;1090;102904;-80
2021/06/23 05:52:20;;;;;;;18.93;17.13;;;;;;;27.52;59.49;100027.88;126869;1089;103387;-80
2021/06/23 05:55:08;;;;;;;18.43;16.73;;;;;;;27.72;59.60;100031.14;126684;1090;103071;-80
2021/06/23 05:57:56;;;;;;;18.50;16.73;;;;;;;28.06;59.25;100028.33;126655;1089;102871;-80
2021/06/23 06:00:44;;;;;;;18.50;16.60;;;;;;;28.70;58.06;100021.23;126635;1089;114695;-80
2021/06/23 06:03:32;;;;;;;17.03;15.37;;;;;;;29.73;57.02;100004.03;126774;1090;102876;-80
2021/06/23 06:06:20;;;;;;;18.80;16.80;;;;;;;31.27;54.38;100011.66;126658;1089;114554;-80
2021/06/23 06:09:08;;;;;;;15.33;13.93;;;;;;;32.89;51.56;100021.70;126685;1089;102970;-80
2021/06/23 06:11:55;;;;;;;17.37;15.57;;;;;;;34.33;49.54;100025.03;126588;1090;114456;-80
2021/06/23 06:14:45;;;;;;;15.80;14.40;;;;;;;35.67;46.53;100027.18;126685;1090;102930;-81
2021/06/23 06:17:34;;;;;;;17.40;15.77;;;;;;;36.66;44.50;100031.05;126699;1090;114605;-80
2021/06/23 06:20:23;;;;;;;13.30;12.00;;;;;;;37.67;42.41;100034.02;126634;1090;102436;-79
2021/06/23 06:23:11;;;;;;;14.37;12.97;;;;;;;38.63;40.71;100032.97;126520;1089;115151;-79
2021/06/23 06:25:59;;;;;;;12.37;11.17;;;;;;;39.53;38.05;100026.99;126667;1089;103455;-79
2021/06/23 06:28:47;;;;;;;12.07;10.97;;;;;;;40.07;36.45;100030.16;126575;1090;114716;-79
2021/06/23 06:31:35;;;;;;;10.90;9.90;;;;;;;40.57;35.73;100036.67;126672;1089;101156;-80
2021/06/23 06:34:23;;;;;;;11.03;10.03;;;;;;;41.11;34.75;100034.98;126704;1090;102871;-79
2021/06/23 06:37:11;;;;;;;13.93;11.47;;;;;;;41.46;33.72;100045.54;126548;1090;114934;-79
2021/06/23 06:39:59;;;;;;;11.43;10.43;;;;;;;41.85;33.04;100050.92;126635;1089;102920;-79
2021/06/23 06:42:47;;;;;;;10.90;9.90;;;;;;;42.20;31.93;100047.70;126501;1089;114489;-79
2021/06/23 06:45:35;;;;;;;10.00;9.10;;;;;;;42.54;31.03;100059.19;126696;1088;103669;-79
2021/06/23 06:48:24;;;;;;;10.10;9.17;;;;;;;42.82;30.35;100044.28;126584;1088;114457;-79
2021/06/23 06:51:12;;;;;;;9.13;8.17;;;;;;;43.08;29.79;100057.04;126665;1090;102875;-79
2021/06/23 06:54:01;;;;;;;9.93;9.03;;;;;;;43.38;29.20;100063.78;126492;1088;114299;-80
2021/06/23 06:56:51;;;;;;;9.53;8.67;;;;;;;43.68;29.03;100063.86;126701;1090;103116;-80
2021/06/23 06:59:38;;;;;;;9.43;8.53;;;;;;;43.88;28.41;100062.27;126590;1089;114356;-79
2021/06/23 07:02:26;;;;;;;9.35;8.55;;;;;;;44.21;28.01;100064.51;126674;1090;102818;-79
2021/06/23 07:05:14;;;;;;;9.57;8.57;;;;;;;44.40;27.36;100063.95;126628;1090;114394;-79
2021/06/23 07:08:01;;;;;;;9.80;8.90;;;;;;;44.56;26.79;100071.10;126791;1090;103046;-79
2021/06/23 07:10:49;;;;;;;9.50;8.70;;;;;;;44.62;26.62;100069.16;126552;1088;113224;-79
2021/06/23 07:13:37;;;;;;;7.47;6.73;;;;;;;44.77;25.92;100077.38;126724;1089;101723;-79
2021/06/23 07:16:25;;;;;;;7.70;7.00;;;;;;;44.79;25.83;100089.75;126655;1090;102933;-80
2021/06/23 07:19:14;;;;;;;7.90;7.10;;;;;;;44.89;25.70;100086.19;126511;1089;114275;-79
2021/06/23 07:22:03;;;;;;;9.00;8.10;;;;;;;45.03;25.00;100080.89;126690;1089;103067;-79
2021/06/23 07:24:52;;;;;;;9.00;8.20;;;;;;;44.89;25.52;100076.00;126718;1088;114270;-79
2021/06/23 07:27:39;;;;;;;9.53;8.73;;;;;;;44.18;25.49;100077.98;126773;1090;102856;-79
2021/06/23 07:30:28;;;;;;;8.17;7.47;;;;;;;44.23;25.59;100081.55;126647;1089;114250;-79
2021/06/23 07:33:17;;;;;;;8.15;7.35;;;;;;;44.31;25.02;100074.66;126831;1088;102891;-79
2021/06/23 07:39:17;;;;;;;7.47;6.80;;;;;;;44.53;24.68;100072.48;126638;1089;102913;-81
2021/06/23 07:42:07;;;;;;;8.30;7.50;;;;;;;44.50;24.63;100080.44;126550;1090;114270;-79
2021/06/23 07:44:58;;;;;;;6.57;5.77;;;;;;;44.59;24.67;100081.55;126646;1090;102441;-79
2021/06/23 07:47:46;;;;;;;6.90;6.30;;;;;;;44.82;24.50;100083.68;126507;1088;114154;-79
2021/06/23 07:50:47;;;;;;;9.10;8.30;;;;;;;45.36;24.02;100084.91;126770;1089;102955;-79
2021/06/23 08:15:43;;;;;;;7.93;7.20;;;;;;;45.27;23.16;100095.70;126712;1089;102958;-79
2021/06/23 08:18:31;;;;;;;7.53;6.73;;;;;;;45.26;23.42;100096.81;126571;1090;114723;-79
2021/06/23 08:21:19;;;;;;;7.40;6.70;;;;;;;45.14;22.90;100085.27;126680;1088;103386;-79
2021/06/23 08:24:07;;;;;;;8.13;6.67;;;;;;;44.99;23.20;100090.81;126608;1090;114273;-79
2021/06/23 08:26:56;;;;;;;7.43;6.70;;;;;;;44.91;23.28;100088.66;126648;1089;102953;-79
2021/06/23 08:29:44;;;;;;;7.30;6.70;;;;;;;44.84;23.19;100083.39;126569;1090;114174;-79
2021/06/23 08:32:32;;;;;;;7.80;6.63;;;;;;;44.66;23.45;100083.99;126534;1089;103266;-79
2021/06/23 08:35:19;;;;;;;8.53;6.63;;;;;;;44.47;23.74;100089.22;126584;1090;114344;-79
2021/06/23 08:38:07;;;;;;;8.10;7.03;;;;;;;44.36;23.71;100093.10;126715;1089;102872;-79
2021/06/23 08:40:55;;;;;;;6.33;5.83;;;;;;;44.24;23.82;100096.94;126563;1090;115166;-79
2021/06/23 08:43:43;;;;;;;7.30;6.50;;;;;;;44.13;23.54;100100.78;126668;1090;102965;-79
2021/06/23 08:46:31;;;;;;;9.00;6.43;;;;;;;43.89;23.85;100110.63;126800;1088;103016;-79
2021/06/23 08:49:19;;;;;;;7.40;6.40;;;;;;;43.80;23.87;100123.23;126586;1089;114360;-79
2021/06/23 08:52:08;;;;;;;7.13;6.13;;;;;;;43.36;24.34;100120.88;126626;1090;103189;-78
2021/06/23 08:54:58;;;;;;;8.57;6.77;;;;;;;42.81;24.51;100133.15;126522;1090;114413;-78
2021/06/23 08:57:51;;;;;;;8.60;6.80;;;;;;;42.58;25.03;100126.14;126627;1090;102920;-79
2021/06/23 09:00:39;;;;;;;7.63;6.83;;;;;;;42.43;25.51;100125.98;126557;1090;114216;-79
2021/06/23 09:03:27;;;;;;;7.27;6.63;;;;;;;42.04;25.47;100142.60;126673;1090;103028;-79
2021/06/23 09:06:15;;;;;;;8.00;7.20;;;;;;;41.54;25.83;100137.36;126528;1088;114157;-79
2021/06/23 09:09:20;;;;;;;8.83;7.30;;;;;;;40.84;26.56;100136.11;126642;1090;101365;-79
2021/06/23 09:12:09;;;;;;;8.53;7.03;;;;;;;40.21;27.46;100144.55;126527;1089;115933;-79
2021/06/23 09:14:58;;;;;;;8.67;7.37;;;;;;;40.04;27.95;100142.65;126607;1089;103011;-78
2021/06/23 09:17:46;;;;;;;10.03;7.80;;;;;;;39.81;27.88;100148.16;126524;1090;114238;-79
2021/06/23 09:20:37;;;;;;;8.57;7.50;;;;;;;39.59;28.82;100150.73;126683;1090;103313;-79
2021/06/23 09:23:51;;;;;;;9.67;8.60;;;;;;;39.72;28.39;100150.46;126592;1090;114455;-79
2021/06/23 09:26:45;;;;;;;9.07;8.03;;;;;;;39.46;28.66;100146.34;126814;1088;102884;-78
2021/06/23 09:29:33;;;;;;;9.57;8.50;;;;;;;38.85;28.91;100149.59;126497;1090;113379;-80
2021/06/23 09:32:22;;;;;;;11.23;8.90;;;;;;;38.27;29.88;100156.58;126655;1090;102891;-80
2021/06/23 09:35:10;;;;;;;10.30;8.30;;;;;;;37.74;30.03;100160.01;126563;1090;113544;-80
2021/06/23 09:37:58;;;;;;;9.27;8.30;;;;;;;37.31;30.87;100164.66;126636;1088;102970;-80
2021/06/23 09:40:46;;;;;;;10.03;9.03;;;;;;;36.91;31.80;100156.88;126647;1090;102919;-80
2021/06/23 09:43:39;;;;;;;9.73;8.83;;;;;;;36.75;32.46;100152.81;126537;1089;114568;-80
2021/06/23 09:46:43;;;;;;;10.80;9.47;;;;;;;36.67;32.47;100147.66;126638;1089;102984;-80
2021/06/23 09:49:37;;;;;;;11.63;9.17;;;;;;;36.49;32.99;100153.87;126686;1089;114223;-80
2021/06/23 09:52:25;;;;;;;10.33;9.23;;;;;;;36.23;32.60;100154.00;126854;1089;102891;-80
2021/06/23 09:55:14;;;;;;;10.87;9.33;;;;;;;35.97;33.48;100163.16;126636;1090;114319;-80
2021/06/23 09:58:19;;;;;;;17.60;11.60;;;;;;;35.91;34.22;100161.28;126669;1089;103058;-80
2021/06/23 10:01:12;;;;;;;14.63;12.83;;;;;;;35.68;34.67;100159.90;126619;1088;114641;-80
2021/06/23 10:04:07;;;;;;;16.00;14.23;;;;;;;35.33;34.83;100153.10;126851;1088;103830;-80
2021/06/23 10:06:55;;;;;;;19.83;14.17;;;;;;;34.87;35.42;100155.91;126620;1089;113579;-80
2021/06/23 10:09:51;;;;;;;16.50;14.00;;;;;;;34.64;36.49;100162.52;126786;1090;102860;-80
2021/06/23 10:12:39;;;;;;;17.60;14.73;;;;;;;34.43;36.02;100162.72;126724;1090;114787;-80
2021/06/23 10:15:27;;;;;;;16.27;14.50;;;;;;;34.18;37.25;100157.03;126728;1090;104154;-80
2021/06/23 10:18:20;;;;;;;22.27;15.27;;;;;;;33.87;37.37;100165.68;126672;1089;114583;-81
2021/06/23 10:21:08;;;;;;;16.80;15.00;;;;;;;33.61;37.67;100172.63;126691;1089;102824;-80
2021/06/23 10:24:00;;;;;;;15.90;14.30;;;;;;;33.43;38.32;100166.92;126618;1090;114719;-81
2021/06/23 10:26:50;;;;;;;21.97;14.93;;;;;;;33.34;38.65;100170.80;126661;1089;102907;-80
2021/06/23 10:29:40;;;;;;;17.57;15.03;;;;;;;33.33;38.90;100174.53;126558;1088;114708;-80
2021/06/23 10:32:27;;;;;;;15.17;13.67;;;;;;;33.51;39.21;100182.13;126660;1090;102801;-80
2021/06/23 10:35:15;;;;;;;17.10;13.65;;;;;;;33.64;38.64;100182.20;126682;1090;114799;-79
2021/06/23 10:38:05;;;;;;;16.53;13.53;;;;;;;33.56;39.20;100179.65;126670;1088;103351;-79
2021/06/23 10:40:57;;;;;;;17.70;12.90;;;;;;;33.47;39.41;100183.56;126624;1090;103015;-79
2021/06/23 10:44:17;;;;;;;16.13;13.40;;;;;;;33.37;39.48;100181.21;126544;1088;114325;-79
2021/06/23 10:47:08;;;;;;;13.10;11.73;;;;;;;33.44;38.92;100178.56;126622;1088;102997;-79
2021/06/23 10:49:57;;;;;;;13.50;11.67;;;;;;;33.63;39.15;100175.13;126611;1090;114446;-79
2021/06/23 10:52:47;;;;;;;12.30;11.00;;;;;;;34.08;39.65;100173.66;126696;1089;102913;-79
2021/06/23 10:55:37;;;;;;;16.90;11.17;;;;;;;34.45;38.18;100168.77;126453;1090;114495;-79
2021/06/23 10:58:27;;;;;;;12.95;9.60;;;;;;;34.79;38.19;100176.70;126640;1090;102873;-79
2021/06/23 11:01:16;;;;;;;15.20;10.60;;;;;;;35.21;37.66;100169.20;126543;1089;114728;-79
2021/06/23 11:04:05;;;;;;;11.80;10.70;;;;;;;35.27;37.08;100175.66;126641;1090;102880;-79
2021/06/23 11:06:52;;;;;;;11.00;9.90;;;;;;;35.20;36.55;100167.55;126505;1090;113742;-79
2021/06/23 11:09:40;;;;;;;12.40;9.97;;;;;;;35.29;36.75;100171.68;126589;1089;103093;-79
2021/06/23 11:12:43;;;;;;;12.90;9.80;;;;;;;35.58;36.62;100172.27;126570;1089;114375;-79
2021/06/23 11:15:32;;;;;;;11.60;9.93;;;;;;;35.51;35.44;100168.73;126762;1090;102881;-79
2021/06/23 11:18:24;;;;;;;11.27;10.17;;;;;;;35.22;36.23;100160.03;126722;1089;113463;-79
2021/06/23 11:21:18;;;;;;;11.00;9.90;;;;;;;34.94;36.71;100168.40;126823;1090;102856;-79
2021/06/23 11:24:18;;;;;;;11.43;10.23;;;;;;;34.71;36.98;100159.84;126647;1090;114450;-79
2021/06/23 11:27:14;;;;;;;12.23;10.03;;;;;;;34.48;37.07;100168.38;126627;1090;102875;-80
2021/06/23 11:30:20;;;;;;;12.83;10.70;;;;;;;34.36;37.60;100156.48;126545;1090;114677;-79
2021/06/23 11:33:30;;;;;;;11.70;10.43;;;;;;;34.37;37.90;100150.85;126625;1090;102872;-79
2021/06/23 11:36:20;;;;;;;12.97;10.10;;;;;;;34.52;37.52;100147.95;126713;1089;114609;-78
2021/06/23 11:39:08;;;;;;;10.30;9.33;;;;;;;34.67;38.41;100145.88;126626;1089;103100;-79
2021/06/23 11:41:56;;;;;;;12.43;9.67;;;;;;;34.79;38.04;100140.65;126511;1088;114624;-79
2021/06/23 11:44:45;;;;;;;11.77;10.17;;;;;;;34.93;37.53;100136.92;126587;1089;103355;-79
2021/06/23 11:47:33;;;;;;;12.53;10.00;;;;;;;35.20;38.07;100126.05;126593;1090;114660;-78
2021/06/23 11:50:21;;;;;;;12.20;11.00;;;;;;;35.17;36.65;100127.27;126644;1090;102940;-78
2021/06/23 11:53:15;;;;;;;13.50;10.87;;;;;;;35.07;37.07;100127.73;126655;1088;102853;-78
2021/06/23 11:56:04;;;;;;;12.33;11.13;;;;;;;34.90;36.64;100131.09;126625;1090;114446;-78
2021/06/23 11:58:52;;;;;;;12.53;10.60;;;;;;;34.68;37.34;100130.46;126641;1089;102852;-79
2021/06/23 12:01:40;;;;;;;12.43;11.00;;;;;;;34.43;37.38;100138.35;126614;1090;114596;-78
2021/06/23 12:04:31;;;;;;;12.33;10.90;;;;;;;34.26;38.09;100140.59;126760;1090;103074;-78
2021/06/23 12:07:19;;;;;;;12.50;10.90;;;;;;;34.04;38.16;100134.52;126679;1090;114500;-80
2021/06/23 12:10:09;;;;;;;16.50;10.80;;;;;;;33.83;38.30;100143.58;126701;1088;103004;-80
2021/06/23 12:12:58;;;;;;;14.30;11.07;;;;;;;33.92;39.25;100152.37;126553;1089;114682;-79
2021/06/23 12:15:47;;;;;;;13.43;10.87;;;;;;;34.14;38.84;100140.38;126827;1090;103000;-78
2021/06/23 12:18:34;;;;;;;11.70;10.57;;;;;;;34.32;38.07;100149.78;126509;1090;114487;-78
2021/06/23 12:21:22;;;;;;;12.43;10.30;;;;;;;34.37;38.46;100150.85;126772;1090;103032;-78
2021/06/23 12:24:10;;;;;;;12.50;11.17;;;;;;;34.38;37.50;100157.94;126708;1090;103029;-80
2021/06/23 12:26:58;;;;;;;10.80;9.67;;;;;;;34.33;38.00;100162.28;126426;1090;114873;-78
2021/06/23 12:29:46;;;;;;;14.57;10.80;;;;;;;34.34;37.66;100150.41;126832;1089;102847;-79
2021/06/23 12:32:35;;;;;;;12.40;10.93;;;;;;;34.36;38.25;100159.19;126548;1088;113747;-78
2021/06/23 12:35:24;;;;;;;15.00;11.57;;;;;;;34.32;37.63;100152.48;126796;1088;102973;-79
2021/06/23 12:38:17;;;;;;;15.60;11.75;;;;;;;34.15;38.35;100152.03;126534;1088;114579;-79
2021/06/23 12:41:06;;;;;;;13.23;11.10;;;;;;;34.09;38.55;100148.25;126869;1090;103844;-78
2021/06/23 12:43:53;;;;;;;15.13;10.90;;;;;;;34.04;38.83;100150.75;126712;1089;102871;-78
2021/06/23 12:46:41;;;;;;;16.23;12.90;;;;;;;33.92;38.55;100139.67;126661;1089;102981;-79
2021/06/23 12:49:31;;;;;;;12.83;11.53;;;;;;;33.78;38.31;100129.84;126789;1090;102868;-78
2021/06/23 12:52:19;;;;;;;14.70;12.25;;;;;;;33.63;38.50;100127.28;126615;1090;114982;-79
2021/06/23 12:55:08;;;;;;;16.03;11.33;;;;;;;33.54;39.05;100136.59;126714;1089;102964;-79
2021/06/23 12:57:57;;;;;;;13.63;10.80;;;;;;;33.64;39.52;100155.99;126557;1090;114734;-79
2021/06/23 13:00:45;;;;;;;13.10;11.65;;;;;;;33.81;39.47;100171.88;126743;1089;102884;-79
2021/06/23 13:03:33;;;;;;;17.70;14.07;;;;;;;33.92;39.93;100174.84;126524;1090;114681;-79
2021/06/23 13:06:20;;;;;;;12.63;11.30;;;;;;;33.99;38.96;100180.30;126658;1088;102864;-79
2021/06/23 13:09:08;;;;;;;12.63;11.17;;;;;;;33.99;38.72;100165.94;126571;1089;114660;-79
2021/06/23 13:11:57;;;;;;;12.40;11.20;;;;;;;33.96;39.30;100169.89;126725;1090;102927;-79